createdAt,value
2023-03-08T00:00:56.849Z,9.13
2023-03-08T00:03:24.998Z,8.30
2023-03-08T00:05:53.219Z,8.98
2023-03-08T00:08:21.208Z,9.55
2023-03-08T00:10:49.274Z,9.45
2023-03-08T00:13:17.403Z,9.18
2023-03-08T00:15:46.633Z,8.63
2023-03-08T00:18:14.473Z,8.57
2023-03-08T00:20:42.331Z,8.10
2023-03-08T00:23:11.805Z,8.45
2023-03-08T00:25:39.754Z,9.35
2023-03-08T00:28:07.701Z,8.77
2023-03-08T00:30:35.506Z,9.13
2023-03-08T00:33:05.022Z,9.93
2023-03-08T00:35:32.891Z,9.75
2023-03-08T00:38:00.755Z,9.88
2023-03-08T00:40:28.661Z,11.05
2023-03-08T00:42:58.031Z,10.80
2023-03-08T00:45:26.243Z,10.48
2023-03-08T00:47:54.123Z,10.88
2023-03-08T00:50:23.488Z,10.57
2023-03-08T00:52:51.533Z,11.35
2023-03-08T00:55:19.421Z,12.93
2023-03-08T00:57:48.292Z,12.55
2023-03-08T01:00:17.657Z,12.93
2023-03-08T01:02:45.470Z,13.88
2023-03-08T01:05:13.732Z,14.10
2023-03-08T01:07:42.903Z,13.73
2023-03-08T01:10:12.303Z,14.57
2023-03-08T01:12:40.907Z,13.43
2023-03-08T01:15:10.078Z,14.00
2023-03-08T01:17:37.994Z,14.70
2023-03-08T01:20:07.198Z,14.75
2023-03-08T01:22:35.174Z,15.20
2023-03-08T01:25:04.658Z,16.55
2023-03-08T01:27:32.828Z,15.95
2023-03-08T01:30:01.017Z,15.98
2023-03-08T01:32:29.150Z,16.27
2023-03-08T01:35:01.986Z,16.27
2023-03-08T01:37:29.880Z,14.77
2023-03-08T01:39:58.055Z,14.23
2023-03-08T01:42:27.818Z,12.48
2023-03-08T01:44:57.670Z,12.02
2023-03-08T01:47:27.970Z,11.82
2023-03-08T01:50:15.366Z,10.95
2023-03-08T01:52:47.752Z,10.50
2023-03-08T01:55:18.216Z,10.55
2023-03-08T02:00:22.854Z,10.23
2023-03-08T02:02:55.512Z,10.30
2023-03-08T02:05:24.579Z,9.50
2023-03-08T02:07:57.146Z,8.77
2023-03-08T02:10:29.281Z,9.20
2023-03-08T02:12:58.609Z,9.05
2023-03-08T02:15:26.653Z,9.35
2023-03-08T02:17:58.028Z,9.45
2023-03-08T02:20:30.104Z,9.15
2023-03-08T02:23:10.016Z,8.73
2023-03-08T02:25:37.952Z,9.65
2023-03-08T02:28:07.056Z,10.90
2023-03-08T02:30:37.265Z,10.38
2023-03-08T02:35:32.954Z,11.32
2023-03-08T02:38:00.887Z,11.32
2023-03-08T02:40:30.090Z,11.30
2023-03-08T02:42:57.946Z,12.93
2023-03-08T02:45:25.813Z,12.65
2023-03-08T02:47:53.993Z,11.88
2023-03-08T02:50:22.153Z,12.00
2023-03-08T02:52:50.029Z,12.13
2023-03-08T02:55:17.960Z,12.77
2023-03-08T02:57:47.222Z,12.07
2023-03-08T03:00:17.512Z,10.77
2023-03-08T03:02:45.516Z,10.18
2023-03-08T03:05:13.894Z,11.30
2023-03-08T03:07:44.941Z,9.75
2023-03-08T03:10:18.126Z,10.85
2023-03-08T03:12:47.399Z,11.15
2023-03-08T03:15:19.638Z,10.73
2023-03-08T03:17:51.406Z,10.32
2023-03-08T03:20:19.844Z,10.43
2023-03-08T03:22:48.108Z,9.88
2023-03-08T03:25:16.869Z,10.02
2023-03-08T03:27:48.155Z,10.02
2023-03-08T03:30:18.579Z,9.93
2023-03-08T03:32:47.197Z,9.95
2023-03-08T03:35:19.335Z,10.10
2023-03-08T03:37:47.265Z,9.40
2023-03-08T03:40:15.813Z,9.88
2023-03-08T03:42:50.090Z,8.85
2023-03-08T03:45:19.280Z,9.40
2023-03-08T03:47:48.046Z,9.27
2023-03-08T03:50:16.594Z,11.63
2023-03-08T03:52:59.029Z,18.30
2023-03-08T03:55:27.547Z,13.57
2023-03-08T03:57:57.466Z,10.00
2023-03-08T04:00:25.369Z,10.70
2023-03-08T04:03:05.343Z,10.27
2023-03-08T04:05:36.143Z,8.88
2023-03-08T04:08:04.519Z,9.15
2023-03-08T04:10:36.177Z,10.05
2023-03-08T04:13:05.492Z,10.13
2023-03-08T04:15:33.715Z,12.15
2023-03-08T04:18:05.883Z,10.98
2023-03-08T04:20:35.819Z,10.48
2023-03-08T04:23:05.280Z,10.65
2023-03-08T04:25:39.547Z,10.38
2023-03-08T04:28:11.623Z,9.95
2023-03-08T04:30:40.119Z,11.13
2023-03-08T04:33:09.297Z,10.00
2023-03-08T04:35:45.350Z,10.80
2023-03-08T04:38:14.719Z,11.02
2023-03-08T04:43:45.438Z,11.23
2023-03-08T04:46:14.944Z,13.00
2023-03-08T04:48:43.251Z,12.17
2023-03-08T04:51:14.851Z,11.98
2023-03-08T04:53:45.285Z,10.82
2023-03-08T04:56:15.707Z,15.45
2023-03-08T04:58:46.007Z,12.30
2023-03-08T05:01:17.405Z,11.80
2023-03-08T05:03:46.240Z,11.38
2023-03-08T05:06:15.106Z,12.52
2023-03-08T05:08:43.470Z,12.60
2023-03-08T05:11:17.370Z,13.05
2023-03-08T05:13:47.031Z,14.88
2023-03-08T05:16:15.389Z,10.32
2023-03-08T05:18:43.524Z,13.85
2023-03-08T05:21:13.907Z,17.70
2023-03-08T05:23:43.621Z,15.13
2023-03-08T05:26:14.953Z,16.10
2023-03-08T05:28:43.276Z,16.30
2023-03-08T05:31:15.449Z,15.50
2023-03-08T05:33:46.323Z,17.52
2023-03-08T05:36:17.389Z,17.73
2023-03-08T05:38:46.526Z,18.05
2023-03-08T05:41:16.519Z,15.55
2023-03-08T05:43:48.675Z,16.95
2023-03-08T05:46:20.679Z,19.48
2023-03-08T05:48:50.150Z,17.48
2023-03-08T05:51:20.420Z,19.20
2023-03-08T05:53:48.964Z,19.02
2023-03-08T05:56:20.276Z,20.27
2023-03-08T05:58:55.297Z,20.35
2023-03-08T06:04:02.543Z,42.80
2023-03-08T06:06:35.004Z,28.05
2023-03-08T06:09:05.487Z,25.08
2023-03-08T06:11:35.844Z,148.10
2023-03-08T06:14:05.082Z,90.13
2023-03-08T06:16:36.516Z,105.03
2023-03-08T06:19:04.944Z,41.90
2023-03-08T06:21:34.375Z,29.95
2023-03-08T06:24:04.748Z,26.27
2023-03-08T06:26:33.276Z,24.85
2023-03-08T06:29:01.807Z,26.50
2023-03-08T06:31:31.749Z,24.75
2023-03-08T06:34:02.148Z,24.25
2023-03-08T06:36:30.599Z,24.98
2023-03-08T06:39:00.991Z,24.83
2023-03-08T06:41:29.619Z,23.67
2023-03-08T06:44:00.291Z,24.45
2023-03-08T06:46:28.674Z,26.15
2023-03-08T06:48:56.605Z,25.75
2023-03-08T06:51:26.741Z,25.77
2023-03-08T06:53:55.086Z,27.67
2023-03-08T06:56:28.265Z,36.85
2023-03-08T06:58:56.138Z,29.23
2023-03-08T07:01:24.118Z,31.05
2023-03-08T07:03:52.847Z,31.50
2023-03-08T07:06:20.696Z,29.00
2023-03-08T07:08:49.969Z,29.58
2023-03-08T07:11:17.772Z,30.70
2023-03-08T07:13:45.659Z,35.55
2023-03-08T07:16:14.621Z,34.05
2023-03-08T07:18:42.937Z,33.58
2023-03-08T07:21:11.366Z,37.80
2023-03-08T07:23:39.217Z,31.65
2023-03-08T07:26:09.517Z,32.95
2023-03-08T07:28:37.984Z,32.90
2023-03-08T07:31:06.170Z,32.65
2023-03-08T07:33:34.889Z,31.95
2023-03-08T07:36:03.131Z,31.63
2023-03-08T07:38:31.243Z,32.53
2023-03-08T07:40:59.326Z,31.98
2023-03-08T07:43:28.770Z,32.10
2023-03-08T07:46:03.711Z,32.17
2023-03-08T07:51:05.529Z,32.33
2023-03-08T07:53:34.637Z,33.00
2023-03-08T07:56:02.716Z,31.63
2023-03-08T07:58:32.104Z,31.92
2023-03-08T08:00:59.989Z,31.20
2023-03-08T08:03:27.832Z,29.45
2023-03-08T08:05:55.763Z,31.52
2023-03-08T08:08:23.608Z,30.17
2023-03-08T08:10:51.565Z,30.15
2023-03-08T08:13:19.412Z,29.67
2023-03-08T08:15:48.897Z,30.90
2023-03-08T08:18:16.756Z,26.92
2023-03-08T08:20:44.682Z,28.38
2023-03-08T08:23:12.464Z,29.20
2023-03-08T08:25:40.847Z,26.75
2023-03-08T08:28:09.000Z,28.80
2023-03-08T08:30:36.937Z,27.40
2023-03-08T08:33:06.334Z,26.90
2023-03-08T08:35:42.993Z,28.08
2023-03-08T08:38:11.398Z,29.58
2023-03-08T08:40:39.238Z,28.35
2023-03-08T08:43:07.232Z,28.10
2023-03-08T08:45:35.081Z,28.40
2023-03-08T08:48:02.975Z,26.92
2023-03-08T08:50:32.237Z,27.83
2023-03-08T08:53:00.168Z,28.23
2023-03-08T08:55:28.205Z,32.42
2023-03-08T08:57:56.149Z,26.85
2023-03-08T09:00:24.254Z,26.00
2023-03-08T09:02:52.410Z,24.42
2023-03-08T09:05:20.358Z,24.27
2023-03-08T09:07:49.668Z,25.30
2023-03-08T09:10:18.074Z,24.75
2023-03-08T09:12:46.024Z,24.73
2023-03-08T09:15:14.471Z,22.10
2023-03-08T09:17:42.395Z,22.77
2023-03-08T09:20:11.888Z,22.42
2023-03-08T09:22:40.401Z,23.77
2023-03-08T09:25:12.026Z,23.20
2023-03-08T09:27:41.348Z,23.83
2023-03-08T09:30:16.905Z,22.63
2023-03-08T09:32:44.834Z,24.63
2023-03-08T09:35:14.851Z,23.23
2023-03-08T09:37:42.688Z,23.38
2023-03-08T09:40:21.219Z,21.77
2023-03-08T09:42:49.299Z,21.15
2023-03-08T09:45:25.277Z,21.83
2023-03-08T09:48:00.266Z,22.15
2023-03-08T09:50:43.669Z,22.92
2023-03-08T09:53:22.469Z,22.95
2023-03-08T09:55:56.651Z,22.55
2023-03-08T09:58:33.516Z,22.58
2023-03-08T10:01:07.629Z,21.55
2023-03-08T10:03:50.830Z,21.58
2023-03-08T10:06:24.031Z,22.63
2023-03-08T10:08:57.824Z,21.60
2023-03-08T10:11:34.454Z,20.30
2023-03-08T10:14:10.406Z,21.77
2023-03-08T10:16:41.978Z,22.85
2023-03-08T10:19:17.557Z,21.67
2023-03-08T10:21:46.258Z,19.42
2023-03-08T10:24:18.631Z,15.25
2023-03-08T10:26:48.062Z,12.30
2023-03-08T10:29:15.944Z,13.00
2023-03-08T10:31:47.060Z,13.90
2023-03-08T10:34:16.782Z,13.35
2023-03-08T10:36:53.218Z,14.75
2023-03-08T10:39:22.223Z,11.50
2023-03-08T10:41:55.911Z,10.68
2023-03-08T10:44:36.833Z,10.15
2023-03-08T10:47:18.277Z,8.23
2023-03-08T10:49:47.498Z,6.85
2023-03-08T10:52:28.316Z,6.10
2023-03-08T10:55:03.452Z,6.43
2023-03-08T10:57:34.369Z,6.38
2023-03-08T11:00:22.633Z,5.25
2023-03-08T11:02:50.811Z,5.63
2023-03-08T11:05:22.050Z,6.30
2023-03-08T11:07:54.277Z,6.78
2023-03-08T11:10:24.549Z,6.88
2023-03-08T11:13:02.719Z,6.45
2023-03-08T11:15:32.779Z,7.40
2023-03-08T11:18:12.370Z,7.88
2023-03-08T11:20:45.432Z,8.55
2023-03-08T11:23:22.394Z,8.40
2023-03-08T11:26:01.056Z,8.38
2023-03-08T11:28:52.981Z,7.75
2023-03-08T11:31:32.378Z,4.93
2023-03-08T11:34:29.232Z,3.33
2023-03-08T11:37:04.013Z,3.58
2023-03-08T11:39:34.375Z,4.18
2023-03-08T11:42:14.290Z,4.28
2023-03-08T11:44:57.433Z,5.45
2023-03-08T11:47:53.542Z,5.10
2023-03-08T11:50:24.436Z,4.65
2023-03-08T11:53:04.271Z,5.93
2023-03-08T11:55:46.453Z,6.57
2023-03-08T11:58:22.524Z,7.55
2023-03-08T12:00:57.319Z,8.15
2023-03-08T12:03:31.008Z,8.35
2023-03-08T12:06:02.669Z,10.27
2023-03-08T12:08:36.906Z,9.27
2023-03-08T12:11:09.436Z,8.75
2023-03-08T12:13:41.831Z,8.48
2023-03-08T12:16:16.838Z,7.25
2023-03-08T12:18:48.203Z,6.35
2023-03-08T12:21:27.249Z,6.70
2023-03-08T12:24:04.021Z,6.35
2023-03-08T12:26:38.657Z,7.78
2023-03-08T12:29:15.047Z,7.50
2023-03-08T12:31:47.072Z,7.93
2023-03-08T12:34:27.210Z,9.30
2023-03-08T12:36:55.323Z,8.00
2023-03-08T12:39:30.197Z,7.22
2023-03-08T12:42:01.024Z,8.00
2023-03-08T12:44:31.206Z,9.52
2023-03-08T12:47:04.337Z,7.72
2023-03-08T12:49:35.751Z,7.30
2023-03-08T12:52:06.722Z,8.85
2023-03-08T12:54:36.675Z,6.53
2023-03-08T12:57:15.879Z,6.10
2023-03-08T12:59:43.815Z,6.40
2023-03-08T13:02:30.676Z,7.30
2023-03-08T13:05:22.060Z,5.78
2023-03-08T13:08:05.524Z,5.82
2023-03-08T13:10:35.886Z,5.88
2023-03-08T13:13:37.444Z,6.05
2023-03-08T13:16:19.441Z,6.00
2023-03-08T13:18:53.930Z,6.72
2023-03-08T13:21:34.433Z,6.53
2023-03-08T13:24:10.380Z,7.43
2023-03-08T13:26:58.284Z,7.13
2023-03-08T13:29:31.583Z,6.50
2023-03-08T13:32:00.043Z,7.60
2023-03-08T13:34:31.275Z,6.75
2023-03-08T13:37:00.119Z,6.05
2023-03-08T13:39:30.038Z,5.70
2023-03-08T13:42:07.744Z,7.00
2023-03-08T13:44:35.621Z,6.28
2023-03-08T13:47:15.573Z,7.22
2023-03-08T13:49:46.655Z,5.00
2023-03-08T13:52:18.629Z,6.50
2023-03-08T13:54:50.174Z,9.77
2023-03-08T13:57:23.006Z,3.47
2023-03-08T13:59:52.917Z,3.72
2023-03-08T14:02:23.606Z,4.60
2023-03-08T14:04:53.735Z,4.90
2023-03-08T14:09:51.624Z,6.07
2023-03-08T14:12:21.711Z,4.93
2023-03-08T14:14:52.633Z,4.90
2023-03-08T14:17:22.966Z,6.32
2023-03-08T14:19:56.829Z,3.90
2023-03-08T14:22:38.796Z,4.13
2023-03-08T14:25:21.333Z,4.28
2023-03-08T14:27:49.324Z,5.65
2023-03-08T14:30:19.021Z,5.70
2023-03-08T14:33:03.666Z,6.95
2023-03-08T14:35:35.395Z,5.55
2023-03-08T14:38:03.945Z,4.90
2023-03-08T14:40:35.404Z,5.10
2023-03-08T14:43:06.303Z,5.03
2023-03-08T14:45:36.933Z,5.13
2023-03-08T14:48:23.959Z,5.78
2023-03-08T14:50:55.648Z,5.80
2023-03-08T14:53:30.837Z,6.47
2023-03-08T14:55:59.895Z,5.30
2023-03-08T14:58:31.089Z,5.90
2023-03-08T15:01:01.539Z,5.82
2023-03-08T15:03:30.431Z,5.88
2023-03-08T15:06:02.624Z,5.10
2023-03-08T15:08:30.615Z,5.53
2023-03-08T15:10:58.518Z,4.72
2023-03-08T15:13:26.407Z,4.90
2023-03-08T15:15:54.345Z,5.10
2023-03-08T15:18:22.331Z,5.10
2023-03-08T15:20:51.420Z,5.07
2023-03-08T15:23:22.913Z,5.05
2023-03-08T15:25:51.218Z,5.78
2023-03-08T15:28:21.446Z,10.40
2023-03-08T15:33:17.605Z,6.95
2023-03-08T15:35:46.320Z,6.82
2023-03-08T15:38:14.882Z,7.93
2023-03-08T15:40:44.740Z,5.63
2023-03-08T15:43:12.899Z,6.30
2023-03-08T15:45:41.212Z,6.95
2023-03-08T15:48:14.710Z,6.43
2023-03-08T15:50:44.149Z,6.30
2023-03-08T15:53:20.592Z,6.88
2023-03-08T15:55:58.500Z,6.07
2023-03-08T15:58:26.934Z,7.70
2023-03-08T16:00:55.891Z,10.07
2023-03-08T16:03:26.248Z,7.45
2023-03-08T16:05:54.467Z,9.02
2023-03-08T16:08:25.136Z,8.65
2023-03-08T16:10:55.292Z,8.60
2023-03-08T16:15:52.227Z,7.13
2023-03-08T16:18:20.394Z,7.60
2023-03-08T16:20:48.737Z,9.57
2023-03-08T16:23:16.816Z,8.65
2023-03-08T16:25:46.582Z,11.52
2023-03-08T16:28:15.760Z,9.93
2023-03-08T16:30:43.670Z,10.20
2023-03-08T16:33:11.602Z,9.32
2023-03-08T16:35:39.550Z,9.20
2023-03-08T16:38:07.663Z,10.18
2023-03-08T16:40:35.567Z,14.27
2023-03-08T16:43:03.496Z,12.18
2023-03-08T16:45:32.768Z,12.45
2023-03-08T16:48:00.681Z,13.47
2023-03-08T16:50:28.662Z,10.95
2023-03-08T16:52:56.796Z,12.85
2023-03-08T16:55:25.613Z,12.15
2023-03-08T16:57:53.530Z,11.05
2023-03-08T17:00:22.228Z,11.80
2023-03-08T17:02:51.595Z,12.35
2023-03-08T17:05:19.462Z,15.00
2023-03-08T17:07:47.748Z,17.73
2023-03-08T17:10:15.744Z,15.30
2023-03-08T17:12:43.592Z,14.50
2023-03-08T17:15:12.661Z,15.02
2023-03-08T17:17:40.969Z,13.93
2023-03-08T17:20:13.912Z,13.32
2023-03-08T17:22:42.706Z,13.10
2023-03-08T17:25:10.768Z,12.57
2023-03-08T17:27:38.665Z,11.18
2023-03-08T17:30:07.678Z,12.85
2023-03-08T17:32:35.816Z,13.50
2023-03-08T17:35:03.861Z,13.30
2023-03-08T17:37:33.095Z,13.23
2023-03-08T17:40:01.010Z,27.30
2023-03-08T17:42:28.810Z,16.65
2023-03-08T17:44:56.739Z,12.98
2023-03-08T17:47:24.866Z,21.35
2023-03-08T17:49:52.720Z,16.80
2023-03-08T17:52:20.620Z,23.30
2023-03-08T17:54:50.438Z,17.40
2023-03-08T17:57:18.699Z,17.45
2023-03-08T17:59:48.018Z,20.55
2023-03-08T18:02:16.574Z,20.23
2023-03-08T18:04:45.352Z,28.38
2023-03-08T18:07:14.433Z,19.42
2023-03-08T18:09:42.281Z,33.83
2023-03-08T18:12:11.742Z,54.50
2023-03-08T18:14:40.334Z,60.70
2023-03-08T18:17:08.795Z,31.33
2023-03-08T18:19:36.845Z,22.50
2023-03-08T18:22:05.629Z,23.38
2023-03-08T18:24:33.994Z,19.98
2023-03-08T18:27:05.332Z,17.25
2023-03-08T18:29:35.415Z,16.75
2023-03-08T18:32:03.742Z,17.23
2023-03-08T18:34:31.765Z,13.73
2023-03-08T18:37:00.131Z,13.65
2023-03-08T18:39:28.330Z,16.08
2023-03-08T18:41:57.081Z,16.00
2023-03-08T18:44:25.140Z,15.70
2023-03-08T18:46:54.418Z,15.85
2023-03-08T18:49:22.281Z,20.20
2023-03-08T18:51:50.328Z,19.92
2023-03-08T18:54:20.526Z,20.88
2023-03-08T18:59:17.865Z,21.13
2023-03-08T19:01:45.933Z,22.70
2023-03-08T19:04:15.487Z,29.42
2023-03-08T19:06:43.914Z,23.80
2023-03-08T19:09:13.335Z,24.77
2023-03-08T19:11:41.718Z,25.73
2023-03-08T19:14:11.356Z,29.02
2023-03-08T19:16:39.559Z,27.83
2023-03-08T19:19:09.852Z,29.58
2023-03-08T19:21:41.618Z,26.33
2023-03-08T19:24:10.163Z,32.85
2023-03-08T19:26:40.504Z,27.80
2023-03-08T19:29:11.530Z,30.30
2023-03-08T19:31:42.853Z,30.60
2023-03-08T19:34:13.096Z,27.58
2023-03-08T19:39:12.169Z,31.08
2023-03-08T19:41:40.121Z,30.60
2023-03-08T19:44:08.626Z,27.52
2023-03-08T19:46:39.226Z,21.20
2023-03-08T19:49:09.303Z,30.73
2023-03-08T19:51:38.800Z,31.52
2023-03-08T19:54:08.670Z,26.85
2023-03-08T19:56:36.940Z,29.35
2023-03-08T19:59:04.988Z,27.27
2023-03-08T20:01:33.229Z,26.80
2023-03-08T20:04:01.164Z,27.88
2023-03-08T20:06:32.131Z,27.10
2023-03-08T20:09:01.622Z,30.95
2023-03-08T20:11:30.966Z,28.87
2023-03-08T20:13:58.971Z,28.03
2023-03-08T20:16:28.207Z,30.65
2023-03-08T20:18:57.432Z,27.77
2023-03-08T20:21:27.885Z,28.30
2023-03-08T20:23:56.594Z,26.45
2023-03-08T20:26:25.622Z,30.63
2023-03-08T20:28:56.213Z,31.50
2023-03-08T20:31:25.186Z,28.08
2023-03-08T20:33:53.650Z,28.17
2023-03-08T20:36:22.041Z,27.30
2023-03-08T20:38:49.802Z,27.85
2023-03-08T20:41:19.635Z,27.67
2023-03-08T20:43:49.426Z,27.02
2023-03-08T20:46:20.445Z,28.85
2023-03-08T20:48:48.566Z,28.60
2023-03-08T20:51:18.471Z,30.10
2023-03-08T20:53:48.711Z,28.00
2023-03-08T20:56:18.713Z,25.35
2023-03-08T20:58:47.354Z,25.48
2023-03-08T21:01:17.445Z,32.92
2023-03-08T21:03:47.705Z,26.67
2023-03-08T21:06:18.746Z,25.23
2023-03-08T21:08:47.338Z,24.98
2023-03-08T21:11:15.372Z,23.90
2023-03-08T21:13:43.366Z,23.88
2023-03-08T21:16:15.704Z,23.42
2023-03-08T21:18:45.777Z,23.80
2023-03-08T21:21:27.204Z,21.92
2023-03-08T21:23:56.160Z,24.60
2023-03-08T21:26:25.711Z,22.55
2023-03-08T21:28:53.826Z,22.58
2023-03-08T21:31:21.916Z,21.85
2023-03-08T21:33:50.313Z,20.60
2023-03-08T21:36:18.432Z,22.50
2023-03-08T21:38:52.408Z,22.33
2023-03-08T21:41:21.511Z,21.67
2023-03-08T21:43:49.486Z,22.08
2023-03-08T21:46:18.211Z,23.98
2023-03-08T21:48:46.553Z,24.75
2023-03-08T21:51:15.311Z,24.90
2023-03-08T21:53:43.739Z,25.02
2023-03-08T21:56:15.008Z,23.77
2023-03-08T21:58:43.223Z,25.80
2023-03-08T22:01:19.627Z,24.55
2023-03-08T22:03:47.547Z,23.55
2023-03-08T22:06:15.428Z,24.55
2023-03-08T22:08:43.355Z,25.10
2023-03-08T22:11:12.556Z,25.25
2023-03-08T22:13:40.697Z,25.03
2023-03-08T22:16:09.155Z,26.52
2023-03-08T22:18:36.960Z,25.95
2023-03-08T22:21:04.917Z,25.73
2023-03-08T22:23:32.974Z,26.20
2023-03-08T22:26:00.828Z,27.83
2023-03-08T22:28:30.101Z,26.17
2023-03-08T22:30:57.925Z,28.23
2023-03-08T22:33:25.683Z,26.70
2023-03-08T22:35:53.572Z,27.10
2023-03-08T22:38:21.396Z,26.20
2023-03-08T22:40:49.437Z,26.95
2023-03-08T22:43:18.052Z,27.35
2023-03-08T22:45:47.347Z,26.10
2023-03-08T22:48:15.209Z,26.10
2023-03-08T22:50:43.026Z,27.75
2023-03-08T22:53:10.864Z,26.95
2023-03-08T22:55:38.691Z,28.55
2023-03-08T22:58:06.466Z,27.70
2023-03-08T23:00:34.269Z,27.67
2023-03-08T23:03:03.512Z,26.48
2023-03-08T23:05:31.388Z,27.77
2023-03-08T23:07:59.514Z,28.08
2023-03-08T23:10:27.380Z,26.40
2023-03-08T23:12:55.316Z,27.70
2023-03-08T23:15:23.183Z,27.08
2023-03-08T23:17:51.283Z,27.67
2023-03-08T23:20:22.333Z,32.63
2023-03-08T23:22:51.497Z,29.48
2023-03-08T23:25:19.509Z,31.63
2023-03-08T23:27:47.429Z,29.30
2023-03-08T23:30:16.808Z,28.40
2023-03-08T23:32:44.726Z,27.02
2023-03-08T23:35:13.567Z,25.58
2023-03-08T23:37:42.729Z,26.83
2023-03-08T23:40:14.136Z,27.10
2023-03-08T23:42:42.497Z,24.15
2023-03-08T23:45:11.179Z,27.15
2023-03-08T23:47:39.011Z,26.73
2023-03-08T23:50:07.982Z,26.10
2023-03-08T23:52:35.908Z,26.95
2023-03-08T23:55:05.645Z,26.13
2023-03-08T23:57:33.865Z,26.23
